Rockford, MI (49341)

2:55 AM EST on November 29, 2014 (GMT -0500)
Cannon Twp-Tillicum Farms | Change Station
CLOSE
Current Station
Personal Weather Station
Location: Rockford, MI
Elevation: 873 ft
Nearby Weather Stations
Active Advisory: Winter Weather Advisory

Elev 873 ft 43.09 °N, 85.47 °W | Updated 14 minutes ago

Overcast
Overcast
27.6 °F
Feels Like 28 °F
N
0.0
Wind Variable Wind from East

Today
High -- | Low -- °F
--% Chance of Precip.
Yesterday
High -- | Low -- °F
Precip. -- in
7:51 AM 5:08 PM
Waxing Crescent, 49% visible
Pressure 29.98 in
Visibility 8.0 miles
Clouds Few 5500 ft
Overcast 10000 ft
Windchill 28 °F
Dew Point 25 °F
Humidity 88%
Rainfall 0.00 in
Snow Depth Not available.
UV 0.0 out of 12
Pollen .10 out of 12
Air Quality Not available.
Flu Activity Not available.
METAR KGRR 290653Z AUTO 13006KT 8SM FEW055 OVC100 M02/M04 A2994 RMK AO2 UPB29E48SNB01E29 SLP150 P0000 T10221044 $

More Conditions Fewer Conditions

Pressure 29.98 in
Visibility 8.0 miles
Clouds Few 5500 ft
Overcast 10000 ft
Windchill 28 °F
Dew Point 25 °F
Humidity 88%
Rainfall 0.00 in
Snow Depth Not available.
UV 0.0 out of 12
Pollen .10 out of 12
Air Quality Not available.
Flu Activity Not available.
METAR KGRR 290653Z AUTO 13006KT 8SM FEW055 OVC100 M02/M04 A2994 RMK AO2 UPB29E48SNB01E29 SLP150 P0000 T10221044 $

More Conditions Fewer Conditions

10-Day Weather Forecast

Almanac

Astronomy

Nov. 29, 2014 Rise Set
Actual Time
Civil Twilight
Nautical Twilight
Astronomical Twilight
Moon
Length of Visible Light
Length of Day
Tomorrow will be .
, % of the Moon is Illuminated

Today's Extremes

State Highs State Lows

Community

WunderPhotos

Upload Photos

1,774,432 photos uploaded!

WunderBlogs® & News

Nearby

Air Quality

  Air Quality AQ Index Pollutant
Not available.

Snow Depth

Station Depth Elevation

Earthquake Activity

City Distance Mag. Time & Date
Minimum magnitude displayed is 2.5.

Coastal Water Temperatures

Place Temperature

Nearby Weather Stations